sensor_id;sensor_type;location;lat;lon;timestamp;P1;durP1;ratioP1;P2;durP2;ratioP2
54983;SDS011;40884;53.562;9.940;2023-01-25T00:01:03;18.33;;;16.00;;
54983;SDS011;40884;53.562;9.940;2023-01-25T00:02:04;17.00;;;15.20;;
54983;SDS011;40884;53.562;9.940;2023-01-25T00:03:04;17.53;;;15.63;;
54983;SDS011;40884;53.562;9.940;2023-01-25T00:04:04;18.77;;;16.47;;
54983;SDS011;40884;53.562;9.940;2023-01-25T00:05:04;17.60;;;15.57;;
54983;SDS011;40884;53.562;9.940;2023-01-25T00:06:04;19.50;;;15.53;;
54983;SDS011;40884;53.562;9.940;2023-01-25T00:07:04;18.77;;;15.77;;
54983;SDS011;40884;53.562;9.940;2023-01-25T00:08:05;17.57;;;15.67;;
54983;SDS011;40884;53.562;9.940;2023-01-25T00:09:05;16.03;;;14.33;;
54983;SDS011;40884;53.562;9.940;2023-01-25T00:10:05;17.67;;;15.23;;
54983;SDS011;40884;53.562;9.940;2023-01-25T00:11:05;16.00;;;14.33;;
54983;SDS011;40884;53.562;9.940;2023-01-25T00:12:05;19.10;;;16.03;;
54983;SDS011;40884;53.562;9.940;2023-01-25T00:13:05;17.47;;;14.80;;
54983;SDS011;40884;53.562;9.940;2023-01-25T00:14:06;17.40;;;15.60;;
54983;SDS011;40884;53.562;9.940;2023-01-25T00:15:06;17.30;;;15.30;;
54983;SDS011;40884;53.562;9.940;2023-01-25T00:16:06;16.87;;;15.07;;
54983;SDS011;40884;53.562;9.940;2023-01-25T00:17:06;17.67;;;15.17;;
54983;SDS011;40884;53.562;9.940;2023-01-25T00:18:06;17.10;;;15.03;;
54983;SDS011;40884;53.562;9.940;2023-01-25T00:19:07;16.70;;;14.93;;
54983;SDS011;40884;53.562;9.940;2023-01-25T00:20:07;17.50;;;15.63;;
54983;SDS011;40884;53.562;9.940;2023-01-25T00:21:12;18.07;;;15.63;;
54983;SDS011;40884;53.562;9.940;2023-01-25T00:22:12;16.87;;;15.07;;
54983;SDS011;40884;53.562;9.940;2023-01-25T00:23:12;15.80;;;13.97;;
54983;SDS011;40884;53.562;9.940;2023-01-25T00:24:12;16.50;;;14.67;;
54983;SDS011;40884;53.562;9.940;2023-01-25T00:25:12;18.23;;;16.00;;
54983;SDS011;40884;53.562;9.940;2023-01-25T00:26:12;17.80;;;15.90;;
54983;SDS011;40884;53.562;9.940;2023-01-25T00:27:13;17.17;;;15.37;;
54983;SDS011;40884;53.562;9.940;2023-01-25T00:28:13;17.80;;;15.87;;
54983;SDS011;40884;53.562;9.940;2023-01-25T00:29:16;17.93;;;15.57;;
54983;SDS011;40884;53.562;9.940;2023-01-25T00:30:16;19.63;;;17.53;;
54983;SDS011;40884;53.562;9.940;2023-01-25T00:32:40;21.10;;;17.50;;
54983;SDS011;40884;53.562;9.940;2023-01-25T00:33:51;19.90;;;16.73;;
54983;SDS011;40884;53.562;9.940;2023-01-25T00:34:54;18.50;;;16.50;;
54983;SDS011;40884;53.562;9.940;2023-01-25T00:35:55;20.40;;;16.93;;
54983;SDS011;40884;53.562;9.940;2023-01-25T00:37:02;18.67;;;15.90;;
54983;SDS011;40884;53.562;9.940;2023-01-25T00:38:20;19.23;;;16.40;;
54983;SDS011;40884;53.562;9.940;2023-01-25T00:39:25;19.23;;;16.43;;
54983;SDS011;40884;53.562;9.940;2023-01-25T00:40:26;20.00;;;16.43;;
54983;SDS011;40884;53.562;9.940;2023-01-25T00:41:26;18.03;;;15.97;;
54983;SDS011;40884;53.562;9.940;2023-01-25T00:42:26;20.37;;;17.77;;
54983;SDS011;40884;53.562;9.940;2023-01-25T00:43:27;18.07;;;16.10;;
54983;SDS011;40884;53.562;9.940;2023-01-25T00:44:27;17.13;;;15.00;;
54983;SDS011;40884;53.562;9.940;2023-01-25T00:45:27;18.67;;;16.63;;
54983;SDS011;40884;53.562;9.940;2023-01-25T00:46:28;18.83;;;16.77;;
54983;SDS011;40884;53.562;9.940;2023-01-25T00:47:28;19.97;;;17.53;;
54983;SDS011;40884;53.562;9.940;2023-01-25T00:48:28;17.80;;;15.60;;
54983;SDS011;40884;53.562;9.940;2023-01-25T00:49:28;19.03;;;16.97;;
54983;SDS011;40884;53.562;9.940;2023-01-25T00:50:29;19.70;;;17.50;;
54983;SDS011;40884;53.562;9.940;2023-01-25T00:51:30;20.07;;;16.90;;
54983;SDS011;40884;53.562;9.940;2023-01-25T00:52:30;19.60;;;17.00;;
54983;SDS011;40884;53.562;9.940;2023-01-25T00:53:30;17.33;;;15.03;;
54983;SDS011;40884;53.562;9.940;2023-01-25T00:54:30;19.37;;;16.90;;
54983;SDS011;40884;53.562;9.940;2023-01-25T00:55:31;18.50;;;15.50;;
54983;SDS011;40884;53.562;9.940;2023-01-25T00:56:31;18.47;;;16.33;;
54983;SDS011;40884;53.562;9.940;2023-01-25T00:57:31;20.03;;;16.87;;
54983;SDS011;40884;53.562;9.940;2023-01-25T00:58:31;18.97;;;16.97;;
54983;SDS011;40884;53.562;9.940;2023-01-25T00:59:31;19.83;;;17.57;;
54983;SDS011;40884;53.562;9.940;2023-01-25T01:00:31;19.73;;;16.57;;
54983;SDS011;40884;53.562;9.940;2023-01-25T01:01:32;18.23;;;16.23;;
54983;SDS011;40884;53.562;9.940;2023-01-25T01:02:33;17.77;;;15.60;;
54983;SDS011;40884;53.562;9.940;2023-01-25T01:03:33;20.00;;;16.87;;
54983;SDS011;40884;53.562;9.940;2023-01-25T01:04:33;19.77;;;17.47;;
54983;SDS011;40884;53.562;9.940;2023-01-25T01:05:35;16.63;;;14.87;;
54983;SDS011;40884;53.562;9.940;2023-01-25T01:06:35;18.90;;;16.10;;
54983;SDS011;40884;53.562;9.940;2023-01-25T01:07:36;18.53;;;16.63;;
54983;SDS011;40884;53.562;9.940;2023-01-25T01:08:39;19.93;;;17.17;;
54983;SDS011;40884;53.562;9.940;2023-01-25T01:09:40;19.20;;;16.43;;
54983;SDS011;40884;53.562;9.940;2023-01-25T01:10:40;19.30;;;17.20;;
54983;SDS011;40884;53.562;9.940;2023-01-25T01:11:40;18.53;;;16.53;;
54983;SDS011;40884;53.562;9.940;2023-01-25T01:12:40;19.17;;;16.30;;
54983;SDS011;40884;53.562;9.940;2023-01-25T01:13:41;19.07;;;16.47;;
54983;SDS011;40884;53.562;9.940;2023-01-25T01:14:41;18.67;;;16.60;;
54983;SDS011;40884;53.562;9.940;2023-01-25T01:15:41;19.47;;;16.50;;
54983;SDS011;40884;53.562;9.940;2023-01-25T01:16:41;20.27;;;16.40;;
54983;SDS011;40884;53.562;9.940;2023-01-25T01:17:43;19.27;;;15.30;;
54983;SDS011;40884;53.562;9.940;2023-01-25T01:18:45;19.43;;;16.53;;
54983;SDS011;40884;53.562;9.940;2023-01-25T01:19:45;19.40;;;16.00;;
54983;SDS011;40884;53.562;9.940;2023-01-25T01:20:49;18.23;;;16.33;;
54983;SDS011;40884;53.562;9.940;2023-01-25T01:21:49;19.17;;;17.03;;
54983;SDS011;40884;53.562;9.940;2023-01-25T01:22:50;21.77;;;17.77;;
54983;SDS011;40884;53.562;9.940;2023-01-25T01:23:52;19.57;;;17.47;;
54983;SDS011;40884;53.562;9.940;2023-01-25T01:24:53;19.80;;;17.57;;
54983;SDS011;40884;53.562;9.940;2023-01-25T01:25:53;20.10;;;17.83;;
54983;SDS011;40884;53.562;9.940;2023-01-25T01:26:53;22.10;;;17.50;;
54983;SDS011;40884;53.562;9.940;2023-01-25T01:27:53;20.90;;;16.63;;
54983;SDS011;40884;53.562;9.940;2023-01-25T01:28:53;19.43;;;16.07;;
54983;SDS011;40884;53.562;9.940;2023-01-25T01:29:53;19.47;;;16.33;;
54983;SDS011;40884;53.562;9.940;2023-01-25T01:30:58;18.87;;;15.77;;
54983;SDS011;40884;53.562;9.940;2023-01-25T01:31:58;19.85;;;15.57;;
54983;SDS011;40884;53.562;9.940;2023-01-25T01:32:59;19.67;;;15.50;;
54983;SDS011;40884;53.562;9.940;2023-01-25T01:33:59;21.10;;;16.00;;
54983;SDS011;40884;53.562;9.940;2023-01-25T01:35:00;17.63;;;15.73;;
54983;SDS011;40884;53.562;9.940;2023-01-25T01:37:09;19.17;;;15.53;;
54983;SDS011;40884;53.562;9.940;2023-01-25T01:38:09;19.03;;;14.90;;
54983;SDS011;40884;53.562;9.940;2023-01-25T01:39:10;17.23;;;15.13;;
54983;SDS011;40884;53.562;9.940;2023-01-25T01:40:12;17.30;;;14.23;;
54983;SDS011;40884;53.562;9.940;2023-01-25T01:41:13;17.83;;;13.77;;
54983;SDS011;40884;53.562;9.940;2023-01-25T01:42:14;16.63;;;13.90;;
54983;SDS011;40884;53.562;9.940;2023-01-25T01:43:18;16.60;;;13.33;;
54983;SDS011;40884;53.562;9.940;2023-01-25T01:44:20;15.67;;;13.83;;
54983;SDS011;40884;53.562;9.940;2023-01-25T01:46:50;15.90;;;13.27;;
54983;SDS011;40884;53.562;9.940;2023-01-25T01:47:52;14.23;;;12.70;;
54983;SDS011;40884;53.562;9.940;2023-01-25T01:50:16;16.10;;;12.20;;
54983;SDS011;40884;53.562;9.940;2023-01-25T01:52:58;14.17;;;12.20;;
54983;SDS011;40884;53.562;9.940;2023-01-25T01:55:18;15.73;;;13.50;;
54983;SDS011;40884;53.562;9.940;2023-01-25T01:56:26;15.07;;;13.23;;
54983;SDS011;40884;53.562;9.940;2023-01-25T01:57:29;15.77;;;13.40;;
54983;SDS011;40884;53.562;9.940;2023-01-25T01:58:31;15.03;;;13.43;;
54983;SDS011;40884;53.562;9.940;2023-01-25T01:59:34;14.00;;;12.50;;
54983;SDS011;40884;53.562;9.940;2023-01-25T02:00:35;13.97;;;12.47;;
54983;SDS011;40884;53.562;9.940;2023-01-25T02:01:36;15.93;;;12.33;;
54983;SDS011;40884;53.562;9.940;2023-01-25T02:02:36;16.30;;;13.20;;
54983;SDS011;40884;53.562;9.940;2023-01-25T02:03:37;17.63;;;13.47;;
54983;SDS011;40884;53.562;9.940;2023-01-25T02:04:39;13.53;;;11.83;;
54983;SDS011;40884;53.562;9.940;2023-01-25T02:05:46;15.23;;;12.77;;
54983;SDS011;40884;53.562;9.940;2023-01-25T02:07:00;14.07;;;11.97;;
54983;SDS011;40884;53.562;9.940;2023-01-25T02:08:03;14.25;;;12.75;;
54983;SDS011;40884;53.562;9.940;2023-01-25T02:09:05;14.13;;;12.03;;
54983;SDS011;40884;53.562;9.940;2023-01-25T02:10:07;14.97;;;12.97;;
54983;SDS011;40884;53.562;9.940;2023-01-25T02:11:08;15.55;;;12.75;;
54983;SDS011;40884;53.562;9.940;2023-01-25T02:12:09;16.57;;;13.50;;
54983;SDS011;40884;53.562;9.940;2023-01-25T02:13:10;15.63;;;13.00;;
54983;SDS011;40884;53.562;9.940;2023-01-25T02:14:10;17.20;;;13.73;;
54983;SDS011;40884;53.562;9.940;2023-01-25T02:15:10;15.63;;;13.00;;
54983;SDS011;40884;53.562;9.940;2023-01-25T02:16:18;17.57;;;13.73;;
54983;SDS011;40884;53.562;9.940;2023-01-25T02:17:25;17.10;;;13.53;;
54983;SDS011;40884;53.562;9.940;2023-01-25T02:18:26;15.57;;;13.50;;
54983;SDS011;40884;53.562;9.940;2023-01-25T02:19:32;14.87;;;12.73;;
54983;SDS011;40884;53.562;9.940;2023-01-25T02:20:53;14.43;;;11.77;;
54983;SDS011;40884;53.562;9.940;2023-01-25T02:21:53;14.17;;;12.50;;
54983;SDS011;40884;53.562;9.940;2023-01-25T02:22:57;13.03;;;11.63;;
54983;SDS011;40884;53.562;9.940;2023-01-25T02:24:03;14.18;;;11.80;;
54983;SDS011;40884;53.562;9.940;2023-01-25T02:25:07;14.57;;;12.07;;
54983;SDS011;40884;53.562;9.940;2023-01-25T02:26:07;15.57;;;12.50;;
54983;SDS011;40884;53.562;9.940;2023-01-25T02:27:08;14.13;;;12.43;;
54983;SDS011;40884;53.562;9.940;2023-01-25T02:29:08;13.17;;;11.67;;
54983;SDS011;40884;53.562;9.940;2023-01-25T02:30:09;14.10;;;11.73;;
54983;SDS011;40884;53.562;9.940;2023-01-25T02:31:09;13.53;;;11.37;;
54983;SDS011;40884;53.562;9.940;2023-01-25T02:32:10;13.67;;;11.43;;
54983;SDS011;40884;53.562;9.940;2023-01-25T02:33:10;13.30;;;11.90;;
54983;SDS011;40884;53.562;9.940;2023-01-25T02:34:10;13.23;;;10.80;;
54983;SDS011;40884;53.562;9.940;2023-01-25T02:35:17;14.20;;;11.80;;
54983;SDS011;40884;53.562;9.940;2023-01-25T02:37:19;13.00;;;11.13;;
54983;SDS011;40884;53.562;9.940;2023-01-25T02:38:19;14.47;;;12.40;;
54983;SDS011;40884;53.562;9.940;2023-01-25T02:39:19;15.83;;;12.50;;
54983;SDS011;40884;53.562;9.940;2023-01-25T02:40:19;14.70;;;11.77;;
54983;SDS011;40884;53.562;9.940;2023-01-25T02:41:22;14.03;;;12.40;;
54983;SDS011;40884;53.562;9.940;2023-01-25T02:42:23;14.83;;;12.97;;
54983;SDS011;40884;53.562;9.940;2023-01-25T02:43:23;14.67;;;12.23;;
54983;SDS011;40884;53.562;9.940;2023-01-25T02:44:27;14.90;;;12.20;;
54983;SDS011;40884;53.562;9.940;2023-01-25T02:45:29;14.37;;;12.10;;
54983;SDS011;40884;53.562;9.940;2023-01-25T02:46:31;17.47;;;13.47;;
54983;SDS011;40884;53.562;9.940;2023-01-25T02:47:31;15.27;;;13.13;;
54983;SDS011;40884;53.562;9.940;2023-01-25T02:48:31;17.50;;;13.90;;
54983;SDS011;40884;53.562;9.940;2023-01-25T02:49:33;16.10;;;13.07;;
54983;SDS011;40884;53.562;9.940;2023-01-25T02:50:34;15.70;;;12.30;;
54983;SDS011;40884;53.562;9.940;2023-01-25T02:51:36;15.87;;;12.40;;
54983;SDS011;40884;53.562;9.940;2023-01-25T02:52:36;15.50;;;12.23;;
54983;SDS011;40884;53.562;9.940;2023-01-25T02:53:37;17.43;;;12.97;;
54983;SDS011;40884;53.562;9.940;2023-01-25T02:54:37;15.70;;;13.07;;
54983;SDS011;40884;53.562;9.940;2023-01-25T02:55:39;15.80;;;12.90;;
54983;SDS011;40884;53.562;9.940;2023-01-25T02:56:41;15.93;;;12.87;;
54983;SDS011;40884;53.562;9.940;2023-01-25T02:57:41;14.90;;;11.57;;
54983;SDS011;40884;53.562;9.940;2023-01-25T02:58:42;16.10;;;11.57;;
54983;SDS011;40884;53.562;9.940;2023-01-25T02:59:43;16.97;;;12.20;;
54983;SDS011;40884;53.562;9.940;2023-01-25T03:00:44;15.43;;;12.40;;
54983;SDS011;40884;53.562;9.940;2023-01-25T03:01:44;16.93;;;13.33;;
54983;SDS011;40884;53.562;9.940;2023-01-25T03:02:44;16.27;;;11.87;;
54983;SDS011;40884;53.562;9.940;2023-01-25T03:03:44;14.67;;;11.97;;
54983;SDS011;40884;53.562;9.940;2023-01-25T03:04:44;14.60;;;12.50;;
54983;SDS011;40884;53.562;9.940;2023-01-25T03:05:45;15.47;;;12.03;;
54983;SDS011;40884;53.562;9.940;2023-01-25T03:06:45;17.90;;;13.50;;
54983;SDS011;40884;53.562;9.940;2023-01-25T03:07:45;16.80;;;13.27;;
54983;SDS011;40884;53.562;9.940;2023-01-25T03:08:46;16.10;;;11.60;;
54983;SDS011;40884;53.562;9.940;2023-01-25T03:09:47;17.80;;;13.10;;
54983;SDS011;40884;53.562;9.940;2023-01-25T03:10:47;14.50;;;11.30;;
54983;SDS011;40884;53.562;9.940;2023-01-25T03:11:48;21.40;;;13.73;;
54983;SDS011;40884;53.562;9.940;2023-01-25T03:12:49;15.83;;;12.03;;
54983;SDS011;40884;53.562;9.940;2023-01-25T03:13:49;18.83;;;13.20;;
54983;SDS011;40884;53.562;9.940;2023-01-25T03:14:51;16.80;;;13.43;;
54983;SDS011;40884;53.562;9.940;2023-01-25T03:15:57;18.20;;;14.10;;
54983;SDS011;40884;53.562;9.940;2023-01-25T03:16:57;18.30;;;14.50;;
54983;SDS011;40884;53.562;9.940;2023-01-25T03:17:58;16.63;;;12.93;;
54983;SDS011;40884;53.562;9.940;2023-01-25T03:18:59;17.47;;;13.17;;
54983;SDS011;40884;53.562;9.940;2023-01-25T03:19:59;16.13;;;12.57;;
54983;SDS011;40884;53.562;9.940;2023-01-25T03:21:03;16.07;;;12.87;;
54983;SDS011;40884;53.562;9.940;2023-01-25T03:22:04;19.90;;;14.10;;
54983;SDS011;40884;53.562;9.940;2023-01-25T03:23:04;16.83;;;13.13;;
54983;SDS011;40884;53.562;9.940;2023-01-25T03:24:05;16.70;;;13.43;;
54983;SDS011;40884;53.562;9.940;2023-01-25T03:25:11;17.37;;;14.37;;
54983;SDS011;40884;53.562;9.940;2023-01-25T03:26:17;16.70;;;12.67;;
54983;SDS011;40884;53.562;9.940;2023-01-25T03:27:44;16.13;;;12.20;;
54983;SDS011;40884;53.562;9.940;2023-01-25T03:28:45;16.87;;;13.00;;
54983;SDS011;40884;53.562;9.940;2023-01-25T03:29:45;16.83;;;13.27;;
54983;SDS011;40884;53.562;9.940;2023-01-25T03:30:53;16.17;;;12.93;;
54983;SDS011;40884;53.562;9.940;2023-01-25T03:31:53;17.07;;;13.47;;
54983;SDS011;40884;53.562;9.940;2023-01-25T03:32:53;21.13;;;15.33;;
54983;SDS011;40884;53.562;9.940;2023-01-25T03:33:53;18.57;;;14.77;;
54983;SDS011;40884;53.562;9.940;2023-01-25T03:34:58;20.50;;;15.17;;
54983;SDS011;40884;53.562;9.940;2023-01-25T03:35:59;19.40;;;14.80;;
54983;SDS011;40884;53.562;9.940;2023-01-25T03:37:01;18.00;;;13.23;;
54983;SDS011;40884;53.562;9.940;2023-01-25T03:38:02;16.83;;;13.40;;
54983;SDS011;40884;53.562;9.940;2023-01-25T03:39:02;18.67;;;14.37;;
54983;SDS011;40884;53.562;9.940;2023-01-25T03:40:02;17.93;;;13.63;;
54983;SDS011;40884;53.562;9.940;2023-01-25T03:41:04;17.30;;;13.17;;
54983;SDS011;40884;53.562;9.940;2023-01-25T03:42:04;16.33;;;13.33;;
54983;SDS011;40884;53.562;9.940;2023-01-25T03:43:05;19.37;;;14.77;;
54983;SDS011;40884;53.562;9.940;2023-01-25T03:44:05;18.40;;;15.17;;
54983;SDS011;40884;53.562;9.940;2023-01-25T03:45:05;18.93;;;14.23;;
54983;SDS011;40884;53.562;9.940;2023-01-25T03:46:06;18.33;;;14.23;;
54983;SDS011;40884;53.562;9.940;2023-01-25T03:47:07;19.03;;;14.67;;
54983;SDS011;40884;53.562;9.940;2023-01-25T03:48:07;18.70;;;14.87;;
54983;SDS011;40884;53.562;9.940;2023-01-25T03:49:07;20.30;;;15.20;;
54983;SDS011;40884;53.562;9.940;2023-01-25T03:50:08;19.13;;;14.77;;
54983;SDS011;40884;53.562;9.940;2023-01-25T03:51:08;20.07;;;14.10;;
54983;SDS011;40884;53.562;9.940;2023-01-25T03:52:09;19.03;;;14.10;;
54983;SDS011;40884;53.562;9.940;2023-01-25T03:53:12;20.97;;;15.90;;
54983;SDS011;40884;53.562;9.940;2023-01-25T03:54:12;17.83;;;14.53;;
54983;SDS011;40884;53.562;9.940;2023-01-25T03:55:13;20.43;;;15.50;;
54983;SDS011;40884;53.562;9.940;2023-01-25T03:56:15;19.00;;;15.80;;
54983;SDS011;40884;53.562;9.940;2023-01-25T03:57:19;21.80;;;15.63;;
54983;SDS011;40884;53.562;9.940;2023-01-25T03:58:32;19.23;;;14.47;;
54983;SDS011;40884;53.562;9.940;2023-01-25T03:59:32;19.93;;;15.77;;
54983;SDS011;40884;53.562;9.940;2023-01-25T04:00:32;19.93;;;15.37;;
54983;SDS011;40884;53.562;9.940;2023-01-25T04:01:34;23.37;;;16.20;;
54983;SDS011;40884;53.562;9.940;2023-01-25T04:02:35;21.03;;;15.80;;
54983;SDS011;40884;53.562;9.940;2023-01-25T04:03:36;21.37;;;15.47;;
54983;SDS011;40884;53.562;9.940;2023-01-25T04:04:37;21.07;;;15.90;;
54983;SDS011;40884;53.562;9.940;2023-01-25T04:05:38;21.17;;;15.53;;
54983;SDS011;40884;53.562;9.940;2023-01-25T04:06:38;20.47;;;15.73;;
54983;SDS011;40884;53.562;9.940;2023-01-25T04:07:38;16.77;;;13.67;;
54983;SDS011;40884;53.562;9.940;2023-01-25T04:08:39;20.93;;;15.70;;
54983;SDS011;40884;53.562;9.940;2023-01-25T04:09:39;20.17;;;14.80;;
54983;SDS011;40884;53.562;9.940;2023-01-25T04:10:41;20.13;;;15.37;;
54983;SDS011;40884;53.562;9.940;2023-01-25T04:11:42;19.83;;;14.87;;
54983;SDS011;40884;53.562;9.940;2023-01-25T04:12:44;16.07;;;13.27;;
54983;SDS011;40884;53.562;9.940;2023-01-25T04:13:44;18.27;;;14.23;;
54983;SDS011;40884;53.562;9.940;2023-01-25T04:14:47;15.67;;;12.97;;
54983;SDS011;40884;53.562;9.940;2023-01-25T04:15:53;20.13;;;14.77;;
54983;SDS011;40884;53.562;9.940;2023-01-25T04:17:13;19.70;;;15.20;;
54983;SDS011;40884;53.562;9.940;2023-01-25T04:18:26;18.37;;;14.47;;
54983;SDS011;40884;53.562;9.940;2023-01-25T04:19:26;17.50;;;14.53;;
54983;SDS011;40884;53.562;9.940;2023-01-25T04:20:30;15.13;;;12.90;;
54983;SDS011;40884;53.562;9.940;2023-01-25T04:21:31;15.90;;;13.23;;
54983;SDS011;40884;53.562;9.940;2023-01-25T04:22:31;15.33;;;13.47;;
54983;SDS011;40884;53.562;9.940;2023-01-25T04:23:32;16.70;;;13.67;;
54983;SDS011;40884;53.562;9.940;2023-01-25T04:24:32;14.37;;;12.37;;
54983;SDS011;40884;53.562;9.940;2023-01-25T04:25:32;15.40;;;12.47;;
54983;SDS011;40884;53.562;9.940;2023-01-25T04:26:33;13.20;;;11.80;;
54983;SDS011;40884;53.562;9.940;2023-01-25T04:27:35;14.67;;;13.13;;
54983;SDS011;40884;53.562;9.940;2023-01-25T04:28:44;14.00;;;12.00;;
54983;SDS011;40884;53.562;9.940;2023-01-25T04:29:45;14.77;;;13.27;;
54983;SDS011;40884;53.562;9.940;2023-01-25T04:30:50;13.03;;;11.63;;
54983;SDS011;40884;53.562;9.940;2023-01-25T04:31:51;12.63;;;11.33;;
54983;SDS011;40884;53.562;9.940;2023-01-25T04:32:51;12.10;;;10.20;;
54983;SDS011;40884;53.562;9.940;2023-01-25T04:33:56;13.70;;;12.30;;
54983;SDS011;40884;53.562;9.940;2023-01-25T04:34:57;13.70;;;12.03;;
54983;SDS011;40884;53.562;9.940;2023-01-25T04:36:00;12.33;;;11.03;;
54983;SDS011;40884;53.562;9.940;2023-01-25T04:37:00;12.47;;;11.17;;
54983;SDS011;40884;53.562;9.940;2023-01-25T04:38:04;13.63;;;12.23;;
54983;SDS011;40884;53.562;9.940;2023-01-25T04:39:12;12.63;;;11.33;;
54983;SDS011;40884;53.562;9.940;2023-01-25T04:40:12;14.57;;;12.40;;
54983;SDS011;40884;53.562;9.940;2023-01-25T04:41:16;14.03;;;11.90;;
54983;SDS011;40884;53.562;9.940;2023-01-25T04:42:18;13.13;;;11.73;;
54983;SDS011;40884;53.562;9.940;2023-01-25T04:43:21;13.57;;;11.60;;
54983;SDS011;40884;53.562;9.940;2023-01-25T04:44:26;12.33;;;10.97;;
54983;SDS011;40884;53.562;9.940;2023-01-25T04:45:26;11.87;;;10.67;;
54983;SDS011;40884;53.562;9.940;2023-01-25T04:46:27;13.73;;;11.73;;
54983;SDS011;40884;53.562;9.940;2023-01-25T04:47:28;12.97;;;10.73;;
54983;SDS011;40884;53.562;9.940;2023-01-25T04:48:28;11.80;;;10.60;;
54983;SDS011;40884;53.562;9.940;2023-01-25T04:49:32;12.47;;;11.17;;
54983;SDS011;40884;53.562;9.940;2023-01-25T04:50:32;13.53;;;12.10;;
54983;SDS011;40884;53.562;9.940;2023-01-25T04:51:33;12.70;;;11.10;;
54983;SDS011;40884;53.562;9.940;2023-01-25T04:52:33;13.53;;;11.07;;
54983;SDS011;40884;53.562;9.940;2023-01-25T04:53:34;12.20;;;11.00;;
54983;SDS011;40884;53.562;9.940;2023-01-25T04:54:35;12.10;;;10.80;;
54983;SDS011;40884;53.562;9.940;2023-01-25T04:55:35;11.73;;;10.63;;
54983;SDS011;40884;53.562;9.940;2023-01-25T04:56:36;11.70;;;10.50;;
54983;SDS011;40884;53.562;9.940;2023-01-25T04:57:36;12.80;;;11.47;;
54983;SDS011;40884;53.562;9.940;2023-01-25T04:58:36;12.17;;;10.97;;
54983;SDS011;40884;53.562;9.940;2023-01-25T04:59:36;12.10;;;10.80;;
54983;SDS011;40884;53.562;9.940;2023-01-25T05:00:37;12.20;;;10.90;;
54983;SDS011;40884;53.562;9.940;2023-01-25T05:01:38;11.67;;;10.47;;
54983;SDS011;40884;53.562;9.940;2023-01-25T05:02:40;12.67;;;11.43;;
54983;SDS011;40884;53.562;9.940;2023-01-25T05:03:41;12.33;;;11.03;;
54983;SDS011;40884;53.562;9.940;2023-01-25T05:04:49;11.87;;;10.67;;
54983;SDS011;40884;53.562;9.940;2023-01-25T05:05:51;12.47;;;11.17;;
54983;SDS011;40884;53.562;9.940;2023-01-25T05:06:55;12.00;;;10.80;;
54983;SDS011;40884;53.562;9.940;2023-01-25T05:07:55;12.57;;;11.43;;
54983;SDS011;40884;53.562;9.940;2023-01-25T05:08:56;12.80;;;11.50;;
54983;SDS011;40884;53.562;9.940;2023-01-25T05:09:56;14.00;;;12.60;;
54983;SDS011;40884;53.562;9.940;2023-01-25T05:10:57;13.73;;;12.33;;
54983;SDS011;40884;53.562;9.940;2023-01-25T05:11:58;12.73;;;11.47;;
54983;SDS011;40884;53.562;9.940;2023-01-25T05:13:09;13.10;;;11.80;;
54983;SDS011;40884;53.562;9.940;2023-01-25T05:14:09;13.53;;;12.20;;
54983;SDS011;40884;53.562;9.940;2023-01-25T05:15:10;13.80;;;12.40;;
54983;SDS011;40884;53.562;9.940;2023-01-25T05:16:10;13.93;;;12.53;;
54983;SDS011;40884;53.562;9.940;2023-01-25T05:17:11;15.20;;;13.20;;
54983;SDS011;40884;53.562;9.940;2023-01-25T05:18:11;13.10;;;11.80;;
54983;SDS011;40884;53.562;9.940;2023-01-25T05:19:11;14.17;;;12.77;;
54983;SDS011;40884;53.562;9.940;2023-01-25T05:20:19;14.60;;;13.17;;
54983;SDS011;40884;53.562;9.940;2023-01-25T05:21:19;14.00;;;12.60;;
54983;SDS011;40884;53.562;9.940;2023-01-25T05:22:20;14.80;;;13.20;;
54983;SDS011;40884;53.562;9.940;2023-01-25T05:23:23;14.93;;;13.47;;
54983;SDS011;40884;53.562;9.940;2023-01-25T05:24:24;14.10;;;12.70;;
54983;SDS011;40884;53.562;9.940;2023-01-25T05:25:25;14.27;;;12.87;;
54983;SDS011;40884;53.562;9.940;2023-01-25T05:26:26;15.90;;;14.40;;
54983;SDS011;40884;53.562;9.940;2023-01-25T05:27:26;14.87;;;13.47;;
54983;SDS011;40884;53.562;9.940;2023-01-25T05:28:26;14.63;;;13.17;;
54983;SDS011;40884;53.562;9.940;2023-01-25T05:29:39;16.00;;;14.40;;
54983;SDS011;40884;53.562;9.940;2023-01-25T05:30:41;16.53;;;14.80;;
54983;SDS011;40884;53.562;9.940;2023-01-25T05:31:53;17.13;;;15.33;;
54983;SDS011;40884;53.562;9.940;2023-01-25T05:32:54;15.40;;;13.80;;
54983;SDS011;40884;53.562;9.940;2023-01-25T05:33:55;16.10;;;14.50;;
54983;SDS011;40884;53.562;9.940;2023-01-25T05:34:55;15.13;;;13.63;;
54983;SDS011;40884;53.562;9.940;2023-01-25T05:35:57;15.23;;;13.63;;
54983;SDS011;40884;53.562;9.940;2023-01-25T05:36:58;15.57;;;14.00;;
54983;SDS011;40884;53.562;9.940;2023-01-25T05:37:58;14.10;;;12.57;;
54983;SDS011;40884;53.562;9.940;2023-01-25T05:38:59;15.00;;;13.40;;
54983;SDS011;40884;53.562;9.940;2023-01-25T05:40:00;14.90;;;13.33;;
54983;SDS011;40884;53.562;9.940;2023-01-25T05:41:00;15.03;;;13.43;;
54983;SDS011;40884;53.562;9.940;2023-01-25T05:42:01;14.33;;;12.93;;
54983;SDS011;40884;53.562;9.940;2023-01-25T05:43:01;13.90;;;12.60;;
54983;SDS011;40884;53.562;9.940;2023-01-25T05:44:03;14.83;;;13.23;;
54983;SDS011;40884;53.562;9.940;2023-01-25T05:45:05;14.60;;;13.10;;
54983;SDS011;40884;53.562;9.940;2023-01-25T05:46:06;14.47;;;13.00;;
54983;SDS011;40884;53.562;9.940;2023-01-25T05:47:14;14.03;;;12.57;;
54983;SDS011;40884;53.562;9.940;2023-01-25T05:48:14;15.17;;;13.57;;
54983;SDS011;40884;53.562;9.940;2023-01-25T05:49:16;14.40;;;12.90;;
54983;SDS011;40884;53.562;9.940;2023-01-25T05:50:17;13.87;;;12.47;;
54983;SDS011;40884;53.562;9.940;2023-01-25T05:51:37;13.53;;;12.13;;
54983;SDS011;40884;53.562;9.940;2023-01-25T05:52:38;14.50;;;13.00;;
54983;SDS011;40884;53.562;9.940;2023-01-25T05:53:38;14.97;;;13.47;;
54983;SDS011;40884;53.562;9.940;2023-01-25T05:54:38;15.90;;;14.20;;
54983;SDS011;40884;53.562;9.940;2023-01-25T05:55:39;15.67;;;13.20;;
54983;SDS011;40884;53.562;9.940;2023-01-25T05:56:43;14.93;;;12.70;;
54983;SDS011;40884;53.562;9.940;2023-01-25T05:57:43;14.53;;;13.10;;
54983;SDS011;40884;53.562;9.940;2023-01-25T05:58:43;14.40;;;13.00;;
54983;SDS011;40884;53.562;9.940;2023-01-25T05:59:43;14.13;;;12.60;;
54983;SDS011;40884;53.562;9.940;2023-01-25T06:00:46;13.73;;;12.33;;
54983;SDS011;40884;53.562;9.940;2023-01-25T06:01:55;13.67;;;12.30;;
54983;SDS011;40884;53.562;9.940;2023-01-25T06:02:58;16.30;;;13.63;;
54983;SDS011;40884;53.562;9.940;2023-01-25T06:03:58;14.07;;;12.57;;
54983;SDS011;40884;53.562;9.940;2023-01-25T06:04:59;14.03;;;12.23;;
54983;SDS011;40884;53.562;9.940;2023-01-25T06:06:00;14.40;;;12.80;;
54983;SDS011;40884;53.562;9.940;2023-01-25T06:07:00;13.27;;;11.97;;
54983;SDS011;40884;53.562;9.940;2023-01-25T06:08:00;14.93;;;12.37;;
54983;SDS011;40884;53.562;9.940;2023-01-25T06:09:11;14.95;;;13.35;;
54983;SDS011;40884;53.562;9.940;2023-01-25T06:10:11;15.60;;;13.48;;
54983;SDS011;40884;53.562;9.940;2023-01-25T06:11:12;17.87;;;13.27;;
54983;SDS011;40884;53.562;9.940;2023-01-25T06:12:19;15.32;;;13.50;;